Latest Weather Observations for Minlaton Airport

IDS60801

Issued at 11:11 am CST Tuesday 16 August 2022 (issued every 10 minutes, with the page automatically refreshed every 10 minutes)

About weather observations | Map of weather stations | Latest weather observations for SA | Other Formats
Station Details ID: 022031 Name: MINLATON AERO Lat: -34.75 Lon: 137.53 Height: 32.0 m
Data from the previous 72 hours. | See also: Recent months at Minlaton Airport
Date/Time
CST
Temp
°C
App
Temp
°C
Dew
Point
°C
Rel
Hum
%
Delta-T
°C
Wind Press
QNH
hPa
Press
MSL
hPa
Rain since
9am
mm
Dir  Spd
km/h
Gust
km/h
Spd
kts
Gust
kts
16/11:00am 14.5 11.8 9.1 70 2.7 SE 13 19 7 10 1020.6 1020.7 0.0
16/10:30am 14.1 11.4 8.9 71 2.6 SSE 13 19 7 10 1020.8 1020.9 0.0
16/10:00am 13.6 11.1 9.6 77 2.1 S 13 17 7 9 1020.9 1021.0 0.0
16/09:30am 12.5 11.0 10.4 87 1.1 S 9 13 5 7 1020.8 1020.9 0.0
16/09:00am 11.0 8.9 9.6 91 0.7 SSW 11 13 6 7 1020.7 1020.8 2.0
16/08:30am 9.8 7.2 9.2 96 0.3 SSE 13 15 7 8 1020.4 1020.5 2.0
16/08:00am 7.9 4.9 7.5 97 0.2 SSE 13 15 7 8 1019.8 1019.8 2.0
16/07:30am 5.6 2.8 5.2 97 0.2 SSE 9 11 5 6 1019.7 1019.7 1.8
16/07:00am 6.4 2.7 6.1 98 0.1 SSE 15 15 8 8 1019.2 1019.2 1.8
16/06:30am 5.3 1.7 5.0 98 0.1 SSE 13 15 7 8 1018.9 1018.9 1.8
16/06:00am 3.7 0.9 3.4 98 0.1 S 7 9 4 5 1018.6 1018.6 1.8
16/05:30am 3.0 1.4 2.7 98 0.1 CALM 0 6 0 3 1018.5 1018.5 1.8
16/05:00am 4.2 2.1 3.8 97 0.2 W 4 6 2 3 1018.3 1018.3 1.8
16/04:30am 6.0 3.7 5.7 98 0.1 NW 7 9 4 5 1018.1 1018.1 1.8
16/04:00am 4.0 1.3 3.7 98 0.1 SW 7 7 4 4 1017.5 1017.5 1.8
16/03:30am 4.1 1.4 3.8 98 0.1 SSE 7 9 4 5 1016.5 1016.5 1.8
16/03:00am 4.1 1.0 3.8 98 0.1 SSE 9 11 5 6 1016.4 1016.4 1.8
16/02:30am 6.7 4.5 6.3 97 0.2 SW 7 9 4 5 1016.6 1016.6 1.8
16/02:00am 6.6 4.4 6.2 97 0.2 SW 7 9 4 5 1017.1 1017.1 1.8
16/01:30am 4.9 3.7 4.5 97 0.2 CALM 0 0 0 0 1016.8 1016.8 1.8
16/01:00am 4.9 2.5 4.3 96 0.3 SE 6 7 3 4 1016.7 1016.7 1.8
16/12:30am 6.5 4.5 6.1 97 0.2 SSW 6 7 3 4 1016.4 1016.4 1.8
16/12:00am 5.4 2.9 5.0 97 0.2 SSW 7 9 4 5 1016.5 1016.5 1.8
 
Date/Time
CST
Temp
°C
App
Temp
°C
Dew
Point
°C
Rel
Hum
%
Delta-T
°C
Wind Press
QNH
hPa
Press
MSL
hPa
Rain since
9am
mm
Dir  Spd
km/h
Gust
km/h
Spd
kts
Gust
kts
15/11:30pm 4.9 2.3 4.3 96 0.3 SSE 7 7 4 4 1016.2 1016.2 1.8
15/11:00pm 5.0 2.6 4.3 95 0.3 S 6 7 3 4 1016.2 1016.2 1.8
15/10:30pm 5.6 3.1 4.7 94 0.4 SSW 7 9 4 5 1016.1 1016.1 1.8
15/10:00pm 7.1 4.9 6.4 95 0.3 SW 7 9 4 5 1015.7 1015.7 1.8
15/09:30pm 7.6 5.6 6.9 95 0.3 SSW 7 9 4 5 1015.3 1015.3 1.8
15/09:00pm 7.4 4.9 6.5 94 0.4 SSW 9 11 5 6 1014.9 1014.9 1.8
15/08:30pm 7.7 4.8 6.6 93 0.5 S 11 13 6 7 1014.6 1014.6 1.8
15/08:00pm 8.3 5.6 7.2 93 0.5 SSW 11 13 6 7 1014.2 1014.2 1.8
15/07:30pm 8.5 5.4 7.4 93 0.5 SW 13 15 7 8 1013.9 1013.9 1.8
15/07:00pm 8.9 5.9 7.8 93 0.5 SW 13 17 7 9 1013.8 1013.8 1.8
15/06:30pm 10.3 7.3 9.1 92 0.6 SW 15 19 8 10 1013.0 1013.0 1.8
15/06:00pm 11.2 7.6 9.8 91 0.7 WSW 19 22 10 12 1012.3 1012.3 1.8
15/05:30pm 11.9 8.4 10.1 89 0.9 WSW 19 24 10 13 1011.9 1011.9 1.8
15/05:00pm 12.2 8.3 10.9 92 0.7 W 22 28 12 15 1011.5 1011.5 1.8
15/04:30pm 11.6 7.9 9.5 87 1.1 W 19 22 10 12 1011.3 1011.3 1.8
15/04:00pm 11.2 7.5 10.0 92 0.6 WSW 20 24 11 13 1011.1 1011.1 1.6
15/03:30pm 11.8 8.0 9.9 88 1.0 W 20 28 11 15 1010.9 1010.9 0.6
15/03:00pm 11.8 8.2 10.4 91 0.7 WSW 20 24 11 13 1010.6 1010.6 0.6
15/02:30pm 13.2 9.3 10.9 86 1.2 W 22 28 12 15 1010.4 1010.4 0.2
15/02:00pm 13.4 10.0 10.6 83 1.5 WSW 19 24 10 13 1010.2 1010.2 0.2
15/01:30pm 13.6 10.0 9.8 78 2.0 W 19 24 10 13 1010.2 1010.2 0.2
15/01:00pm 13.0 9.9 10.4 84 1.3 WNW 17 20 9 11 1010.4 1010.4 0.2
15/12:30pm 13.0 9.3 9.3 78 1.9 W 19 20 10 11 1010.9 1010.9 0.0
15/12:00pm 14.1 10.4 9.3 73 2.5 W 19 26 10 14 1010.9 1010.9 0.0
15/11:30am 14.3 11.4 9.7 74 2.4 W 15 20 8 11 1010.9 1010.9 0.0
15/11:00am 14.4 11.4 10.6 78 2.0 W 17 22 9 12 1011.0 1011.0 0.0
15/10:30am 13.9 11.1 9.9 77 2.1 WNW 15 20 8 11 1010.9 1010.9 0.0
15/10:00am 13.2 10.1 10.2 82 1.6 W 17 20 9 11 1011.0 1011.0 0.0
15/09:30am 12.7 9.6 10.4 86 1.2 W 17 20 9 11 1011.2 1011.2 0.0
15/09:00am 12.0 11.7 11.5 97 0.3 NNW 4 7 2 4 1010.9 1010.9 0.2
15/08:30am 10.9 9.9 10.4 97 0.3 N 6 7 3 4 1010.8 1010.8 0.2
15/08:00am 10.1 8.7 9.5 96 0.3 NNW 7 9 4 5 1010.8 1010.8 0.2
15/07:30am 9.9 8.4 9.3 96 0.3 N 7 9 4 5 1010.6 1010.6 0.2
15/07:00am 9.3 6.9 8.7 96 0.3 N 11 11 6 6 1010.4 1010.4 0.2
15/06:30am 9.1 7.1 8.5 96 0.3 N 9 11 5 6 1010.6 1010.6 0.2
15/06:00am 9.2 6.8 8.6 96 0.3 NNW 11 13 6 7 1010.5 1010.5 0.2
15/05:30am 9.6 6.9 9.0 96 0.3 N 13 15 7 8 1010.4 1010.4 0.2
15/05:00am 9.8 7.6 9.2 96 0.3 N 11 13 6 7 1010.5 1010.5 0.2
15/04:30am 9.8 8.5 9.2 96 0.3 NNW 6 9 3 5 1010.5 1010.5 0.2
15/04:00am 9.7 7.0 9.1 96 0.3 N 13 15 7 8 1010.7 1010.7 0.2
15/03:30am 9.0 6.2 8.4 96 0.3 NNE 13 15 7 8 1010.7 1010.7 0.2
15/03:00am 8.6 5.6 7.8 95 0.4 N 13 13 7 7 1010.8 1010.8 0.2
15/02:30am 9.9 7.6 9.1 95 0.4 NNE 11 13 6 7 1011.0 1011.0 0.2
15/02:00am 9.7 7.0 8.9 95 0.4 NNE 13 15 7 8 1011.3 1011.3 0.2
15/01:30am 9.4 6.6 8.6 95 0.4 NNE 13 13 7 7 1011.7 1011.7 0.2
15/01:00am 9.6 7.2 8.7 94 0.4 N 11 13 6 7 1012.0 1012.0 0.2
15/12:30am 10.1 8.3 9.3 95 0.4 N 9 9 5 5 1012.3 1012.3 0.2
15/12:00am 10.4 8.2 9.5 94 0.5 NW 11 13 6 7 1012.7 1012.7 0.2
 
Date/Time
CST
Temp
°C
App
Temp
°C
Dew
Point
°C
Rel
Hum
%
Delta-T
°C
Wind Press
QNH
hPa
Press
MSL
hPa
Rain since
9am
mm
Dir  Spd
km/h
Gust
km/h
Spd
kts
Gust
kts
14/11:30pm 10.8 8.4 9.9 94 0.5 WNW 13 17 7 9 1013.1 1013.1 0.2
14/11:00pm 10.0 8.5 9.2 95 0.4 N 7 11 4 6 1013.4 1013.4 0.0
14/10:30pm 9.6 7.6 8.8 95 0.4 N 9 11 5 6 1013.6 1013.6 0.0
14/10:00pm 8.8 6.2 7.9 94 0.4 N 11 13 6 7 1013.7 1013.7 0.0
14/09:30pm 9.1 6.9 8.0 93 0.5 N 9 11 5 6 1013.9 1013.9 0.0
14/09:00pm 10.2 8.7 9.1 93 0.5 WNW 7 9 4 5 1013.7 1013.7 0.0
14/08:30pm 10.6 8.8 9.4 92 0.6 NW 9 11 5 6 1013.8 1013.8 0.0
14/08:00pm 10.8 9.1 9.9 94 0.5 WNW 9 11 5 6 1013.9 1013.9 0.0
14/07:30pm 10.7 9.0 9.8 94 0.5 NW 9 11 5 6 1013.8 1013.8 0.0
14/07:00pm 10.8 9.1 9.7 93 0.6 NNW 9 9 5 5 1013.7 1013.7 0.0
14/06:30pm 10.5 8.7 9.3 92 0.6 NW 9 9 5 5 1013.6 1013.6 0.0
14/06:00pm 11.1 9.0 9.7 91 0.7 NW 11 13 6 7 1013.5 1013.5 0.0
14/05:30pm 12.4 10.1 10.6 89 0.9 WNW 13 15 7 8 1013.6 1013.6 0.0
14/05:00pm 12.9 10.2 10.4 85 1.3 WNW 15 20 8 11 1013.8 1013.8 0.0
14/04:30pm 13.4 10.5 10.9 85 1.3 WNW 17 22 9 12 1013.8 1013.8 0.0
14/04:00pm 14.1 10.6 10.9 81 1.7 WNW 20 24 11 13 1013.7 1013.7 0.0
14/03:30pm 13.7 10.0 10.3 80 1.8 WNW 20 26 11 14 1013.7 1013.7 0.0
14/03:00pm 13.9 10.6 10.9 82 1.6 WNW 19 24 10 13 1013.8 1013.8 0.0
14/02:30pm 14.7 10.7 10.5 76 2.2 WNW 22 28 12 15 1014.1 1014.1 0.0
14/02:00pm 14.5 9.9 10.9 79 1.9 WNW 26 32 14 17 1014.3 1014.3 0.0
14/01:30pm 15.0 10.6 11.8 81 1.7 WNW 26 32 14 17 1014.7 1014.7 0.0
14/01:00pm 15.3 10.3 11.1 76 2.2 WNW 28 33 15 18 1015.0 1015.0 0.0
14/12:30pm 15.4 11.3 11.6 78 2.0 WNW 24 32 13 17 1015.6 1015.6 0.0
14/12:00pm 15.0 11.3 10.2 73 2.5 W 20 28 11 15 1015.7 1015.7 0.0
14/11:30am 14.7 11.1 9.9 73 2.5 W 19 26 10 14 1015.9 1015.9 0.0
14/11:00am 14.3 11.2 10.3 77 2.1 W 17 22 9 12 1016.1 1016.1 0.0
14/10:30am 14.0 10.6 10.4 79 1.9 W 19 22 10 12 1016.2 1016.2 0.0
14/10:00am 13.3 10.8 11.0 86 1.2 WSW 15 19 8 10 1016.1 1016.1 0.0
14/09:30am 12.4 11.3 11.9 97 0.3 W 9 17 5 9 1016.3 1016.3 0.0
14/09:00am 11.4 10.4 10.9 97 0.3 WSW 7 9 4 5 1016.3 1016.3 0.6
14/08:30am 10.3 10.3 9.8 97 0.3 CALM 0 0 0 0 1016.1 1016.1 0.6
14/08:00am 8.6 7.0 8.2 97 0.2 WNW 6 7 3 4 1015.8 1015.8 0.6
14/07:30am 5.5 3.3 5.2 98 0.1 WSW 6 6 3 3 1015.6 1015.6 0.6
14/07:00am 3.7 1.5 3.3 97 0.2 WSW 4 9 2 5 1015.3 1015.3 0.6
14/06:30am 5.2 2.9 4.8 97 0.2 W 6 7 3 4 1015.1 1015.1 0.6
14/06:00am 7.0 4.9 6.6 97 0.2 WNW 7 9 4 5 1015.1 1015.1 0.6
14/05:30am 6.4 4.2 6.0 97 0.2 W 7 9 4 5 1014.8 1014.8 0.6
14/05:00am 6.6 5.0 6.3 98 0.1 WSW 4 6 2 3 1014.4 1014.4 0.6
14/04:30am 5.1 3.6 4.8 98 0.1 SW 2 7 1 4 1014.4 1014.4 0.6
14/04:00am 4.4 2.7 4.1 98 0.1 SW 2 6 1 3 1014.4 1014.4 0.6
14/03:30am 4.5 3.2 4.1 97 0.2 CALM 0 6 0 3 1014.4 1014.4 0.6
14/03:00am 4.7 2.3 4.1 96 0.3 WSW 6 7 3 4 1014.5 1014.5 0.6
14/02:30am 7.6 5.8 7.2 97 0.2 WSW 6 7 3 4 1014.8 1014.8 0.6
14/02:00am 6.7 4.7 6.3 97 0.2 SW 6 7 3 4 1015.1 1015.1 0.6
14/01:30am 6.6 4.5 6.0 96 0.3 SW 6 7 3 4 1015.2 1015.2 0.6
14/01:00am 8.0 6.1 7.6 97 0.2 SW 7 9 4 5 1015.3 1015.3 0.6
14/12:30am 6.1 3.8 5.5 96 0.3 WSW 7 9 4 5 1015.4 1015.4 0.6
14/12:00am 7.9 6.0 7.5 97 0.2 W 7 9 4 5 1015.4 1015.4 0.6
 
Date/Time
CST
Temp
°C
App
Temp
°C
Dew
Point
°C
Rel
Hum
%
Delta-T
°C
Wind Press
QNH
hPa
Press
MSL
hPa
Rain since
9am
mm
Dir  Spd
km/h
Gust
km/h
Spd
kts
Gust
kts
13/11:30pm 6.6 4.5 6.0 96 0.3 WSW 6 7 3 4 1015.4 1015.4 0.6
13/11:00pm 6.7 5.0 6.1 96 0.3 S 4 6 2 3 1015.5 1015.5 0.6
13/10:30pm 6.3 3.9 5.4 94 0.4 S 7 7 4 4 1015.6 1015.6 0.6
13/10:00pm 8.0 6.0 7.2 95 0.4 S 7 9 4 5 1015.5 1015.5 0.6
13/09:30pm 6.9 4.8 5.7 92 0.5 SW 6 7 3 4 1015.7 1015.7 0.6
13/09:00pm 7.6 5.5 6.5 93 0.5 S 7 9 4 5 1015.6 1015.6 0.6
13/08:30pm 8.8 6.5 7.6 92 0.6 S 9 11 5 6 1015.5 1015.5 0.6
13/08:00pm 10.1 8.2 8.9 92 0.6 SW 9 11 5 6 1015.1 1015.1 0.6
13/07:30pm 10.2 8.2 8.8 91 0.7 SW 9 11 5 6 1015.0 1015.0 0.6
13/07:00pm 10.6 9.1 9.2 91 0.7 WSW 7 9 4 5 1014.8 1014.8 0.6
13/06:30pm 10.8 9.4 9.4 91 0.7 SW 7 9 4 5 1014.5 1014.5 0.6
13/06:00pm 10.7 8.8 9.0 89 0.8 WSW 9 11 5 6 1014.2 1014.2 0.6
13/05:30pm 12.2 9.8 10.1 87 1.1 WSW 13 17 7 9 1014.0 1014.0 0.6
13/05:00pm 12.6 10.3 10.3 86 1.2 SW 13 17 7 9 1013.9 1013.9 0.6
13/04:30pm 12.4 7.7 9.1 80 1.7 WSW 24 32 13 17 1013.6 1013.6 0.6
13/04:00pm 13.9 8.7 10.1 78 2.0 WSW 28 37 15 20 1013.4 1013.4 0.6
13/03:30pm 14.3 10.4 10.7 79 1.9 SW 22 30 12 16 1013.6 1013.6 0.6
13/03:00pm 14.9 9.9 10.9 77 2.1 WSW 28 39 15 21 1013.5 1013.5 0.6
13/02:30pm 14.3 9.3 10.9 80 1.8 WSW 28 35 15 19 1013.5 1013.5 0.6
13/02:00pm 14.2 9.2 10.8 80 1.8 WSW 28 33 15 18 1013.7 1013.7 0.6
13/01:30pm 12.9 6.7 9.9 82 1.5 WSW 33 41 18 22 1013.9 1013.9 0.6
13/01:00pm 13.8 8.6 11.5 86 1.2 WSW 30 39 16 21 1014.1 1014.1 0.6
13/12:30pm 12.1 6.1 10.2 88 1.0 WSW 32 39 17 21 1014.3 1014.3 0.4
13/12:00pm 14.0 8.9 10.6 80 1.8 WSW 28 39 15 21 1014.6 1014.6 0.0
13/11:30am 15.2 9.6 11.4 78 2.0 W 32 35 17 19 1014.7 1014.7 0.0

Other formats

Comma delimited format used in spreadsheet applications
http://www.bom.gov.au/fwo/IDS60801/IDS60801.95659.axf

JavaScript Object Notation format (JSON) in row-major order
http://www.bom.gov.au/fwo/IDS60801/IDS60801.95659.json

Data quality

Most of these data are generated automatically and are frequently updated. Quality checks on data are not normally performed. It is possible for incorrect values to appear. Refer to information at About Latest Weather Observations and please check the disclaimer before using these data.